sensor_id;sensor_type;location;lat;lon;timestamp;temperature;humidity
15666;DHT22;20725;51.196;3.510;2022-08-04T00:02:01;20.50;86.20
15666;DHT22;20725;51.196;3.510;2022-08-04T00:04:29;20.40;86.70
15666;DHT22;20725;51.196;3.510;2022-08-04T00:06:59;20.30;86.60
15666;DHT22;20725;51.196;3.510;2022-08-04T00:09:34;20.20;86.80
15666;DHT22;20725;51.196;3.510;2022-08-04T00:12:04;20.20;86.20
15666;DHT22;20725;51.196;3.510;2022-08-04T00:14:33;20.10;86.00
15666;DHT22;20725;51.196;3.510;2022-08-04T00:17:05;20.10;86.50
15666;DHT22;20725;51.196;3.510;2022-08-04T00:19:38;20.10;87.70
15666;DHT22;20725;51.196;3.510;2022-08-04T00:22:08;20.10;87.60
15666;DHT22;20725;51.196;3.510;2022-08-04T00:24:41;20.10;87.70
15666;DHT22;20725;51.196;3.510;2022-08-04T00:27:09;20.10;87.00
15666;DHT22;20725;51.196;3.510;2022-08-04T00:29:38;20.20;87.40
15666;DHT22;20725;51.196;3.510;2022-08-04T00:32:07;20.20;87.40
15666;DHT22;20725;51.196;3.510;2022-08-04T00:34:36;20.20;87.20
15666;DHT22;20725;51.196;3.510;2022-08-04T00:37:03;20.20;87.10
15666;DHT22;20725;51.196;3.510;2022-08-04T00:39:30;20.30;87.70
15666;DHT22;20725;51.196;3.510;2022-08-04T00:42:12;20.40;87.20
15666;DHT22;20725;51.196;3.510;2022-08-04T00:44:51;20.40;87.60
15666;DHT22;20725;51.196;3.510;2022-08-04T00:47:36;20.40;87.90
15666;DHT22;20725;51.196;3.510;2022-08-04T00:50:08;20.50;87.60
15666;DHT22;20725;51.196;3.510;2022-08-04T00:52:43;20.60;87.70
15666;DHT22;20725;51.196;3.510;2022-08-04T00:55:20;20.60;87.20
15666;DHT22;20725;51.196;3.510;2022-08-04T00:57:58;20.60;87.00
15666;DHT22;20725;51.196;3.510;2022-08-04T01:00:28;20.60;87.00
15666;DHT22;20725;51.196;3.510;2022-08-04T01:03:05;20.60;86.60
15666;DHT22;20725;51.196;3.510;2022-08-04T01:05:37;20.60;86.80
15666;DHT22;20725;51.196;3.510;2022-08-04T01:08:17;20.60;86.80
15666;DHT22;20725;51.196;3.510;2022-08-04T01:10:52;20.60;86.60
15666;DHT22;20725;51.196;3.510;2022-08-04T01:13:47;20.70;86.50
15666;DHT22;20725;51.196;3.510;2022-08-04T01:16:22;20.70;85.70
15666;DHT22;20725;51.196;3.510;2022-08-04T01:18:56;20.70;86.50
15666;DHT22;20725;51.196;3.510;2022-08-04T01:21:50;20.70;86.30
15666;DHT22;20725;51.196;3.510;2022-08-04T01:24:46;20.70;86.50
15666;DHT22;20725;51.196;3.510;2022-08-04T01:27:25;20.70;85.50
15666;DHT22;20725;51.196;3.510;2022-08-04T01:29:55;20.70;87.30
15666;DHT22;20725;51.196;3.510;2022-08-04T01:32:25;20.70;86.70
15666;DHT22;20725;51.196;3.510;2022-08-04T01:34:55;20.70;86.30
15666;DHT22;20725;51.196;3.510;2022-08-04T01:37:27;20.70;86.30
15666;DHT22;20725;51.196;3.510;2022-08-04T01:39:59;20.70;86.00
15666;DHT22;20725;51.196;3.510;2022-08-04T01:42:28;20.80;86.10
15666;DHT22;20725;51.196;3.510;2022-08-04T01:44:59;20.80;85.60
15666;DHT22;20725;51.196;3.510;2022-08-04T01:47:29;20.80;85.70
15666;DHT22;20725;51.196;3.510;2022-08-04T01:50:06;20.80;85.30
15666;DHT22;20725;51.196;3.510;2022-08-04T01:52:34;20.80;84.90
15666;DHT22;20725;51.196;3.510;2022-08-04T01:55:05;20.70;84.70
15666;DHT22;20725;51.196;3.510;2022-08-04T01:57:33;20.70;84.70
15666;DHT22;20725;51.196;3.510;2022-08-04T02:00:04;20.70;84.90
15666;DHT22;20725;51.196;3.510;2022-08-04T02:04:59;20.60;85.50
15666;DHT22;20725;51.196;3.510;2022-08-04T02:07:31;20.60;85.30
15666;DHT22;20725;51.196;3.510;2022-08-04T02:10:04;20.60;85.00
15666;DHT22;20725;51.196;3.510;2022-08-04T02:12:51;20.60;84.80
15666;DHT22;20725;51.196;3.510;2022-08-04T02:15:22;20.60;84.80
15666;DHT22;20725;51.196;3.510;2022-08-04T02:18:00;20.40;85.30
15666;DHT22;20725;51.196;3.510;2022-08-04T02:20:33;20.40;85.60
15666;DHT22;20725;51.196;3.510;2022-08-04T02:23:04;20.40;85.60
15666;DHT22;20725;51.196;3.510;2022-08-04T02:25:39;20.30;86.00
15666;DHT22;20725;51.196;3.510;2022-08-04T02:28:15;20.30;86.50
15666;DHT22;20725;51.196;3.510;2022-08-04T02:30:53;20.30;87.00
15666;DHT22;20725;51.196;3.510;2022-08-04T02:33:29;20.30;87.80
15666;DHT22;20725;51.196;3.510;2022-08-04T02:36:03;20.20;88.00
15666;DHT22;20725;51.196;3.510;2022-08-04T02:38:48;20.10;88.60
15666;DHT22;20725;51.196;3.510;2022-08-04T02:41:16;20.20;89.60
15666;DHT22;20725;51.196;3.510;2022-08-04T02:43:51;20.10;90.10
15666;DHT22;20725;51.196;3.510;2022-08-04T02:46:30;20.10;90.30
15666;DHT22;20725;51.196;3.510;2022-08-04T02:49:01;20.00;90.70
15666;DHT22;20725;51.196;3.510;2022-08-04T02:51:33;20.00;91.20
15666;DHT22;20725;51.196;3.510;2022-08-04T02:54:04;20.00;91.30
15666;DHT22;20725;51.196;3.510;2022-08-04T02:56:37;20.00;91.80
15666;DHT22;20725;51.196;3.510;2022-08-04T02:59:06;19.90;92.50
15666;DHT22;20725;51.196;3.510;2022-08-04T03:01:35;19.90;92.90
15666;DHT22;20725;51.196;3.510;2022-08-04T03:04:26;19.90;93.10
15666;DHT22;20725;51.196;3.510;2022-08-04T03:07:32;19.80;94.10
15666;DHT22;20725;51.196;3.510;2022-08-04T03:10:25;19.80;94.90
15666;DHT22;20725;51.196;3.510;2022-08-04T03:16:23;19.80;95.50
15666;DHT22;20725;51.196;3.510;2022-08-04T03:22:28;19.70;97.60
15666;DHT22;20725;51.196;3.510;2022-08-04T03:25:21;19.70;98.30
15666;DHT22;20725;51.196;3.510;2022-08-04T03:28:16;19.60;98.50
15666;DHT22;20725;51.196;3.510;2022-08-04T03:31:07;19.60;99.40
15666;DHT22;20725;51.196;3.510;2022-08-04T03:33:48;19.50;99.90
15666;DHT22;20725;51.196;3.510;2022-08-04T03:36:39;19.60;99.90
15666;DHT22;20725;51.196;3.510;2022-08-04T03:42:36;19.80;99.90
15666;DHT22;20725;51.196;3.510;2022-08-04T03:45:28;19.90;99.90
15666;DHT22;20725;51.196;3.510;2022-08-04T03:51:06;20.00;99.90
15666;DHT22;20725;51.196;3.510;2022-08-04T03:56:55;20.10;99.90
15666;DHT22;20725;51.196;3.510;2022-08-04T03:59:52;20.20;99.90
15666;DHT22;20725;51.196;3.510;2022-08-04T04:05:48;20.30;99.90
15666;DHT22;20725;51.196;3.510;2022-08-04T04:08:50;20.40;99.90
15666;DHT22;20725;51.196;3.510;2022-08-04T04:11:49;20.40;99.90
15666;DHT22;20725;51.196;3.510;2022-08-04T04:14:25;20.50;99.90
15666;DHT22;20725;51.196;3.510;2022-08-04T04:17:13;20.50;99.90
15666;DHT22;20725;51.196;3.510;2022-08-04T04:20:04;20.50;99.90
15666;DHT22;20725;51.196;3.510;2022-08-04T04:22:59;20.50;99.90
15666;DHT22;20725;51.196;3.510;2022-08-04T04:28:53;20.50;99.90
15666;DHT22;20725;51.196;3.510;2022-08-04T04:31:50;20.60;99.90
15666;DHT22;20725;51.196;3.510;2022-08-04T04:35:05;20.70;99.90
15666;DHT22;20725;51.196;3.510;2022-08-04T04:38:17;20.60;99.90
15666;DHT22;20725;51.196;3.510;2022-08-04T04:41:04;20.60;99.90
15666;DHT22;20725;51.196;3.510;2022-08-04T04:46:49;20.80;99.90
15666;DHT22;20725;51.196;3.510;2022-08-04T04:49:27;20.80;99.90
15666;DHT22;20725;51.196;3.510;2022-08-04T04:52:02;20.90;99.90
15666;DHT22;20725;51.196;3.510;2022-08-04T04:54:35;20.90;99.90
15666;DHT22;20725;51.196;3.510;2022-08-04T04:57:15;20.90;99.90
15666;DHT22;20725;51.196;3.510;2022-08-04T04:59:55;21.00;99.90
15666;DHT22;20725;51.196;3.510;2022-08-04T05:05:55;21.00;99.90
15666;DHT22;20725;51.196;3.510;2022-08-04T05:08:58;21.10;99.90
15666;DHT22;20725;51.196;3.510;2022-08-04T05:14:35;21.20;99.90
15666;DHT22;20725;51.196;3.510;2022-08-04T05:17:17;21.30;99.90
15666;DHT22;20725;51.196;3.510;2022-08-04T05:20:09;21.50;99.90
15666;DHT22;20725;51.196;3.510;2022-08-04T05:22:41;21.60;99.90
15666;DHT22;20725;51.196;3.510;2022-08-04T05:25:33;21.70;99.90
15666;DHT22;20725;51.196;3.510;2022-08-04T05:28:32;21.80;99.90
15666;DHT22;20725;51.196;3.510;2022-08-04T05:31:17;22.00;99.90
15666;DHT22;20725;51.196;3.510;2022-08-04T05:34:04;22.00;99.90
15666;DHT22;20725;51.196;3.510;2022-08-04T05:37:08;22.10;99.90
15666;DHT22;20725;51.196;3.510;2022-08-04T05:39:45;22.20;99.90
15666;DHT22;20725;51.196;3.510;2022-08-04T05:42:36;22.30;99.90
15666;DHT22;20725;51.196;3.510;2022-08-04T05:45:13;22.40;99.90
15666;DHT22;20725;51.196;3.510;2022-08-04T05:47:56;22.40;99.90
15666;DHT22;20725;51.196;3.510;2022-08-04T05:50:27;22.50;99.90
15666;DHT22;20725;51.196;3.510;2022-08-04T05:56:31;22.70;99.50
15666;DHT22;20725;51.196;3.510;2022-08-04T05:59:03;22.80;98.90
15666;DHT22;20725;51.196;3.510;2022-08-04T06:02:20;23.00;98.70
15666;DHT22;20725;51.196;3.510;2022-08-04T06:04:47;23.40;96.80
15666;DHT22;20725;51.196;3.510;2022-08-04T06:07:15;23.40;96.70
15666;DHT22;20725;51.196;3.510;2022-08-04T06:10:08;23.60;96.20
15666;DHT22;20725;51.196;3.510;2022-08-04T06:12:51;23.70;95.10
15666;DHT22;20725;51.196;3.510;2022-08-04T06:15:23;23.70;94.80
15666;DHT22;20725;51.196;3.510;2022-08-04T06:18:10;23.70;93.90
15666;DHT22;20725;51.196;3.510;2022-08-04T06:20:48;23.60;94.10
15666;DHT22;20725;51.196;3.510;2022-08-04T06:23:36;23.70;94.00
15666;DHT22;20725;51.196;3.510;2022-08-04T06:26:11;23.90;93.70
15666;DHT22;20725;51.196;3.510;2022-08-04T06:29:03;24.10;93.10
15666;DHT22;20725;51.196;3.510;2022-08-04T06:32:00;24.30;92.00
15666;DHT22;20725;51.196;3.510;2022-08-04T06:34:42;24.60;91.30
15666;DHT22;20725;51.196;3.510;2022-08-04T06:37:17;24.60;90.90
15666;DHT22;20725;51.196;3.510;2022-08-04T06:39:45;24.40;90.30
15666;DHT22;20725;51.196;3.510;2022-08-04T06:42:16;24.10;90.80
15666;DHT22;20725;51.196;3.510;2022-08-04T06:44:46;23.90;91.20
15666;DHT22;20725;51.196;3.510;2022-08-04T06:47:15;23.80;91.60
15666;DHT22;20725;51.196;3.510;2022-08-04T06:49:47;23.70;92.00
15666;DHT22;20725;51.196;3.510;2022-08-04T06:52:20;23.80;92.10
15666;DHT22;20725;51.196;3.510;2022-08-04T06:54:51;23.90;92.00
15666;DHT22;20725;51.196;3.510;2022-08-04T06:57:22;24.10;91.60
15666;DHT22;20725;51.196;3.510;2022-08-04T07:00:08;24.10;91.20
15666;DHT22;20725;51.196;3.510;2022-08-04T07:02:46;24.20;91.10
15666;DHT22;20725;51.196;3.510;2022-08-04T07:05:17;24.40;90.20
15666;DHT22;20725;51.196;3.510;2022-08-04T07:07:47;24.90;89.50
15666;DHT22;20725;51.196;3.510;2022-08-04T07:10:17;25.40;88.00
15666;DHT22;20725;51.196;3.510;2022-08-04T07:12:44;25.80;86.40
15666;DHT22;20725;51.196;3.510;2022-08-04T07:15:13;26.50;82.70
15666;DHT22;20725;51.196;3.510;2022-08-04T07:17:43;26.90;79.60
15666;DHT22;20725;51.196;3.510;2022-08-04T07:20:12;27.50;76.30
15666;DHT22;20725;51.196;3.510;2022-08-04T07:22:41;27.80;73.30
15666;DHT22;20725;51.196;3.510;2022-08-04T07:25:09;27.80;71.80
15666;DHT22;20725;51.196;3.510;2022-08-04T07:27:39;27.50;71.40
15666;DHT22;20725;51.196;3.510;2022-08-04T07:33:00;27.80;70.60
15666;DHT22;20725;51.196;3.510;2022-08-04T07:35:28;27.80;69.60
15666;DHT22;20725;51.196;3.510;2022-08-04T07:37:57;27.80;69.20
15666;DHT22;20725;51.196;3.510;2022-08-04T07:40:27;28.00;67.50
15666;DHT22;20725;51.196;3.510;2022-08-04T07:42:55;28.00;65.90
15666;DHT22;20725;51.196;3.510;2022-08-04T07:45:29;27.90;65.40
15666;DHT22;20725;51.196;3.510;2022-08-04T07:47:56;28.00;64.50
15666;DHT22;20725;51.196;3.510;2022-08-04T07:50:26;28.20;64.70
15666;DHT22;20725;51.196;3.510;2022-08-04T07:52:59;28.50;62.70
15666;DHT22;20725;51.196;3.510;2022-08-04T07:55:29;28.60;62.10
15666;DHT22;20725;51.196;3.510;2022-08-04T07:57:58;29.00;61.30
15666;DHT22;20725;51.196;3.510;2022-08-04T08:00:25;29.30;59.50
15666;DHT22;20725;51.196;3.510;2022-08-04T08:02:58;29.00;59.70
15666;DHT22;20725;51.196;3.510;2022-08-04T08:06:09;28.70;60.00
15666;DHT22;20725;51.196;3.510;2022-08-04T08:08:29;28.60;59.90
15666;DHT22;20725;51.196;3.510;2022-08-04T08:10:57;28.40;60.20
15666;DHT22;20725;51.196;3.510;2022-08-04T08:13:39;28.30;60.10
15666;DHT22;20725;51.196;3.510;2022-08-04T08:16:16;28.20;58.90
15666;DHT22;20725;51.196;3.510;2022-08-04T08:19:03;28.00;59.70
15666;DHT22;20725;51.196;3.510;2022-08-04T08:25:05;27.70;60.40
15666;DHT22;20725;51.196;3.510;2022-08-04T08:27:39;27.50;61.10
15666;DHT22;20725;51.196;3.510;2022-08-04T08:30:25;27.40;61.50
15666;DHT22;20725;51.196;3.510;2022-08-04T08:32:55;27.40;61.40
15666;DHT22;20725;51.196;3.510;2022-08-04T08:35:40;27.30;61.80
15666;DHT22;20725;51.196;3.510;2022-08-04T08:44:37;27.40;62.50
15666;DHT22;20725;51.196;3.510;2022-08-04T08:47:32;27.70;61.00
15666;DHT22;20725;51.196;3.510;2022-08-04T08:50:46;28.10;61.10
15666;DHT22;20725;51.196;3.510;2022-08-04T08:53:51;28.40;59.70
15666;DHT22;20725;51.196;3.510;2022-08-04T08:56:52;28.40;59.10
15666;DHT22;20725;51.196;3.510;2022-08-04T08:59:51;28.60;58.20
15666;DHT22;20725;51.196;3.510;2022-08-04T09:02:55;29.00;58.40
15666;DHT22;20725;51.196;3.510;2022-08-04T09:05:49;29.90;56.00
15666;DHT22;20725;51.196;3.510;2022-08-04T09:11:12;30.60;52.90
15666;DHT22;20725;51.196;3.510;2022-08-04T09:13:49;31.40;52.50
15666;DHT22;20725;51.196;3.510;2022-08-04T09:16:39;32.10;50.20
15666;DHT22;20725;51.196;3.510;2022-08-04T09:19:14;33.10;48.40
15666;DHT22;20725;51.196;3.510;2022-08-04T09:21:56;35.30;47.00
15666;DHT22;20725;51.196;3.510;2022-08-04T09:24:36;37.20;40.10
15666;DHT22;20725;51.196;3.510;2022-08-04T09:27:20;38.50;37.80
15666;DHT22;20725;51.196;3.510;2022-08-04T09:30:08;39.70;37.00
15666;DHT22;20725;51.196;3.510;2022-08-04T09:32:42;41.20;34.80
15666;DHT22;20725;51.196;3.510;2022-08-04T09:35:19;42.80;30.00
15666;DHT22;20725;51.196;3.510;2022-08-04T09:37:59;43.30;28.50
15666;DHT22;20725;51.196;3.510;2022-08-04T09:40:43;42.60;28.20
15666;DHT22;20725;51.196;3.510;2022-08-04T09:43:51;42.10;28.20
15666;DHT22;20725;51.196;3.510;2022-08-04T09:46:34;42.10;27.30
15666;DHT22;20725;51.196;3.510;2022-08-04T09:49:09;41.00;26.60
15666;DHT22;20725;51.196;3.510;2022-08-04T09:52:00;40.90;28.20
15666;DHT22;20725;51.196;3.510;2022-08-04T09:54:44;40.70;27.20
15666;DHT22;20725;51.196;3.510;2022-08-04T09:57:26;40.70;28.30
15666;DHT22;20725;51.196;3.510;2022-08-04T10:00:01;40.50;27.80
15666;DHT22;20725;51.196;3.510;2022-08-04T10:02:39;39.60;28.70
15666;DHT22;20725;51.196;3.510;2022-08-04T10:08:22;40.90;28.10
15666;DHT22;20725;51.196;3.510;2022-08-04T10:11:08;42.20;27.60
15666;DHT22;20725;51.196;3.510;2022-08-04T10:13:47;43.00;25.00
15666;DHT22;20725;51.196;3.510;2022-08-04T10:16:43;42.70;25.70
15666;DHT22;20725;51.196;3.510;2022-08-04T10:19:28;42.90;25.10
15666;DHT22;20725;51.196;3.510;2022-08-04T10:22:23;43.50;24.00
15666;DHT22;20725;51.196;3.510;2022-08-04T10:24:57;44.40;25.60
15666;DHT22;20725;51.196;3.510;2022-08-04T10:27:52;45.60;23.30
15666;DHT22;20725;51.196;3.510;2022-08-04T10:33:17;46.50;21.90
15666;DHT22;20725;51.196;3.510;2022-08-04T10:35:58;47.50;21.70
15666;DHT22;20725;51.196;3.510;2022-08-04T10:38:31;47.90;21.00
15666;DHT22;20725;51.196;3.510;2022-08-04T10:41:23;48.50;20.80
15666;DHT22;20725;51.196;3.510;2022-08-04T10:43:54;48.60;20.50
15666;DHT22;20725;51.196;3.510;2022-08-04T10:47:00;48.70;19.70
15666;DHT22;20725;51.196;3.510;2022-08-04T10:49:22;48.00;19.20
15666;DHT22;20725;51.196;3.510;2022-08-04T11:03:12;51.50;18.40
15666;DHT22;20725;51.196;3.510;2022-08-04T11:05:49;52.20;17.60
15666;DHT22;20725;51.196;3.510;2022-08-04T11:08:24;52.70;17.40
15666;DHT22;20725;51.196;3.510;2022-08-04T11:11:04;52.10;17.20
15666;DHT22;20725;51.196;3.510;2022-08-04T11:13:39;52.70;17.70
15666;DHT22;20725;51.196;3.510;2022-08-04T11:16:13;53.40;17.00
15666;DHT22;20725;51.196;3.510;2022-08-04T11:18:52;54.20;17.40
15666;DHT22;20725;51.196;3.510;2022-08-04T11:25:00;55.30;15.40
15666;DHT22;20725;51.196;3.510;2022-08-04T11:27:42;53.40;15.20
15666;DHT22;20725;51.196;3.510;2022-08-04T11:30:14;51.70;16.90
15666;DHT22;20725;51.196;3.510;2022-08-04T11:33:15;51.90;16.90
15666;DHT22;20725;51.196;3.510;2022-08-04T11:36:02;52.60;16.80
15666;DHT22;20725;51.196;3.510;2022-08-04T11:39:08;52.80;16.10
15666;DHT22;20725;51.196;3.510;2022-08-04T11:41:51;53.90;16.90
15666;DHT22;20725;51.196;3.510;2022-08-04T11:44:34;54.20;15.60
15666;DHT22;20725;51.196;3.510;2022-08-04T11:47:10;51.30;17.00
15666;DHT22;20725;51.196;3.510;2022-08-04T11:49:45;48.30;18.00
15666;DHT22;20725;51.196;3.510;2022-08-04T11:52:41;47.50;19.30
15666;DHT22;20725;51.196;3.510;2022-08-04T11:55:25;48.60;18.70
15666;DHT22;20725;51.196;3.510;2022-08-04T11:57:53;50.00;18.60
15666;DHT22;20725;51.196;3.510;2022-08-04T12:00:30;51.20;17.20
15666;DHT22;20725;51.196;3.510;2022-08-04T12:03:18;50.10;18.10
15666;DHT22;20725;51.196;3.510;2022-08-04T12:06:12;51.00;18.30
15666;DHT22;20725;51.196;3.510;2022-08-04T12:09:11;52.90;17.80
15666;DHT22;20725;51.196;3.510;2022-08-04T12:11:54;52.90;16.50
15666;DHT22;20725;51.196;3.510;2022-08-04T12:14:57;50.80;18.70
15666;DHT22;20725;51.196;3.510;2022-08-04T12:18:01;52.00;17.70
15666;DHT22;20725;51.196;3.510;2022-08-04T12:20:41;52.40;17.10
15666;DHT22;20725;51.196;3.510;2022-08-04T12:23:47;52.20;17.20
15666;DHT22;20725;51.196;3.510;2022-08-04T12:26:27;53.20;17.40
15666;DHT22;20725;51.196;3.510;2022-08-04T12:29:05;54.20;16.70
15666;DHT22;20725;51.196;3.510;2022-08-04T12:31:39;55.20;16.50
15666;DHT22;20725;51.196;3.510;2022-08-04T12:34:15;54.20;15.70
15666;DHT22;20725;51.196;3.510;2022-08-04T12:37:00;52.00;17.10
15666;DHT22;20725;51.196;3.510;2022-08-04T12:39:31;52.90;17.00
15666;DHT22;20725;51.196;3.510;2022-08-04T12:42:10;53.70;16.80
15666;DHT22;20725;51.196;3.510;2022-08-04T12:44:42;53.10;16.70
15666;DHT22;20725;51.196;3.510;2022-08-04T12:47:13;52.90;16.60
15666;DHT22;20725;51.196;3.510;2022-08-04T12:52:48;53.20;16.50
15666;DHT22;20725;51.196;3.510;2022-08-04T12:55:24;53.50;16.60
15666;DHT22;20725;51.196;3.510;2022-08-04T12:58:20;51.40;16.70
15666;DHT22;20725;51.196;3.510;2022-08-04T13:00:58;49.40;17.60
15666;DHT22;20725;51.196;3.510;2022-08-04T13:03:43;47.90;19.30
15666;DHT22;20725;51.196;3.510;2022-08-04T13:07:56;47.10;19.30
15666;DHT22;20725;51.196;3.510;2022-08-04T13:09:06;45.70;19.90
15666;DHT22;20725;51.196;3.510;2022-08-04T13:11:39;44.40;21.00
15666;DHT22;20725;51.196;3.510;2022-08-04T13:14:29;44.60;22.10
15666;DHT22;20725;51.196;3.510;2022-08-04T13:17:31;47.80;20.70
15666;DHT22;20725;51.196;3.510;2022-08-04T13:20:02;47.20;19.70
15666;DHT22;20725;51.196;3.510;2022-08-04T13:22:30;48.80;20.00
15666;DHT22;20725;51.196;3.510;2022-08-04T13:25:15;50.20;18.80
15666;DHT22;20725;51.196;3.510;2022-08-04T13:28:00;52.30;17.50
15666;DHT22;20725;51.196;3.510;2022-08-04T13:30:36;51.70;17.40
15666;DHT22;20725;51.196;3.510;2022-08-04T13:33:23;52.40;17.30
15666;DHT22;20725;51.196;3.510;2022-08-04T13:35:59;51.90;17.00
15666;DHT22;20725;51.196;3.510;2022-08-04T13:38:32;49.20;17.80
15666;DHT22;20725;51.196;3.510;2022-08-04T13:41:04;47.60;19.00
15666;DHT22;20725;51.196;3.510;2022-08-04T13:43:58;46.20;20.30
15666;DHT22;20725;51.196;3.510;2022-08-04T13:46:48;44.90;20.80
15666;DHT22;20725;51.196;3.510;2022-08-04T13:49:35;45.10;21.90
15666;DHT22;20725;51.196;3.510;2022-08-04T13:52:29;44.50;21.60
15666;DHT22;20725;51.196;3.510;2022-08-04T13:54:57;43.50;21.80
15666;DHT22;20725;51.196;3.510;2022-08-04T13:57:29;43.50;22.60
15666;DHT22;20725;51.196;3.510;2022-08-04T14:00:13;43.60;22.60
15666;DHT22;20725;51.196;3.510;2022-08-04T14:02:58;44.20;22.50
15666;DHT22;20725;51.196;3.510;2022-08-04T14:05:48;45.30;21.70
15666;DHT22;20725;51.196;3.510;2022-08-04T14:08:41;43.80;22.10
15666;DHT22;20725;51.196;3.510;2022-08-04T14:11:16;41.10;23.90
15666;DHT22;20725;51.196;3.510;2022-08-04T14:13:45;41.40;24.70
15666;DHT22;20725;51.196;3.510;2022-08-04T14:16:23;42.00;24.60
15666;DHT22;20725;51.196;3.510;2022-08-04T14:19:00;44.50;22.60
15666;DHT22;20725;51.196;3.510;2022-08-04T14:21:40;44.90;22.00
15666;DHT22;20725;51.196;3.510;2022-08-04T14:24:25;46.60;20.60
15666;DHT22;20725;51.196;3.510;2022-08-04T14:27:17;47.50;19.40
15666;DHT22;20725;51.196;3.510;2022-08-04T14:30:39;49.60;18.80
15666;DHT22;20725;51.196;3.510;2022-08-04T14:33:05;50.00;18.10
15666;DHT22;20725;51.196;3.510;2022-08-04T14:36:11;47.80;18.40
15666;DHT22;20725;51.196;3.510;2022-08-04T14:38:49;44.70;20.90
15666;DHT22;20725;51.196;3.510;2022-08-04T14:41:20;45.90;20.60
15666;DHT22;20725;51.196;3.510;2022-08-04T14:43:56;46.70;19.80
15666;DHT22;20725;51.196;3.510;2022-08-04T14:46:27;47.70;19.40
15666;DHT22;20725;51.196;3.510;2022-08-04T14:49:09;47.60;19.00
15666;DHT22;20725;51.196;3.510;2022-08-04T14:51:50;47.30;19.00
15666;DHT22;20725;51.196;3.510;2022-08-04T14:54:33;48.20;18.60
15666;DHT22;20725;51.196;3.510;2022-08-04T14:57:20;48.80;18.20
15666;DHT22;20725;51.196;3.510;2022-08-04T14:59:54;48.90;18.10
15666;DHT22;20725;51.196;3.510;2022-08-04T15:02:44;48.30;18.30
15666;DHT22;20725;51.196;3.510;2022-08-04T15:05:13;44.00;20.50
15666;DHT22;20725;51.196;3.510;2022-08-04T15:07:48;42.00;22.40
15666;DHT22;20725;51.196;3.510;2022-08-04T15:10:29;40.00;24.10
15666;DHT22;20725;51.196;3.510;2022-08-04T15:12:56;38.20;25.20
15666;DHT22;20725;51.196;3.510;2022-08-04T15:15:39;37.30;26.30
15666;DHT22;20725;51.196;3.510;2022-08-04T15:18:09;35.90;28.20
15666;DHT22;20725;51.196;3.510;2022-08-04T15:21:44;35.40;29.00
15666;DHT22;20725;51.196;3.510;2022-08-04T15:23:53;34.90;30.00
15666;DHT22;20725;51.196;3.510;2022-08-04T15:26:30;35.00;30.60
15666;DHT22;20725;51.196;3.510;2022-08-04T15:29:14;35.00;30.50
15666;DHT22;20725;51.196;3.510;2022-08-04T15:31:51;35.10;30.10
15666;DHT22;20725;51.196;3.510;2022-08-04T15:34:43;34.70;30.30
15666;DHT22;20725;51.196;3.510;2022-08-04T15:37:16;34.30;30.90
15666;DHT22;20725;51.196;3.510;2022-08-04T15:39:51;34.00;32.20
15666;DHT22;20725;51.196;3.510;2022-08-04T15:42:29;34.00;31.90
15666;DHT22;20725;51.196;3.510;2022-08-04T15:45:19;33.80;31.40
15666;DHT22;20725;51.196;3.510;2022-08-04T15:48:22;33.30;32.10
15666;DHT22;20725;51.196;3.510;2022-08-04T15:51:23;33.30;32.50
15666;DHT22;20725;51.196;3.510;2022-08-04T16:02:56;33.20;33.00
15666;DHT22;20725;51.196;3.510;2022-08-04T16:05:48;32.50;34.20
15666;DHT22;20725;51.196;3.510;2022-08-04T16:08:24;32.70;33.80
15666;DHT22;20725;51.196;3.510;2022-08-04T16:10:52;32.40;34.10
15666;DHT22;20725;51.196;3.510;2022-08-04T16:13:31;32.20;34.10
15666;DHT22;20725;51.196;3.510;2022-08-04T16:16:19;32.20;34.00
15666;DHT22;20725;51.196;3.510;2022-08-04T16:19:05;31.80;34.80
15666;DHT22;20725;51.196;3.510;2022-08-04T16:21:35;31.90;35.10
15666;DHT22;20725;51.196;3.510;2022-08-04T16:24:28;31.70;35.10
15666;DHT22;20725;51.196;3.510;2022-08-04T16:26:56;32.20;34.60
15666;DHT22;20725;51.196;3.510;2022-08-04T16:29:43;31.70;35.10
15666;DHT22;20725;51.196;3.510;2022-08-04T16:32:15;31.40;35.90
15666;DHT22;20725;51.196;3.510;2022-08-04T16:35:00;31.30;36.10
15666;DHT22;20725;51.196;3.510;2022-08-04T16:40:32;31.40;36.00
15666;DHT22;20725;51.196;3.510;2022-08-04T16:43:01;30.50;37.00
15666;DHT22;20725;51.196;3.510;2022-08-04T16:45:51;30.90;36.80
15666;DHT22;20725;51.196;3.510;2022-08-04T16:48:21;31.00;37.10
15666;DHT22;20725;51.196;3.510;2022-08-04T16:50:59;30.80;37.20
15666;DHT22;20725;51.196;3.510;2022-08-04T16:53:45;30.10;37.70
15666;DHT22;20725;51.196;3.510;2022-08-04T16:56:20;29.60;38.20
15666;DHT22;20725;51.196;3.510;2022-08-04T16:58:56;29.70;38.80
15666;DHT22;20725;51.196;3.510;2022-08-04T17:01:32;29.90;38.40
15666;DHT22;20725;51.196;3.510;2022-08-04T17:04:01;29.80;38.90
15666;DHT22;20725;51.196;3.510;2022-08-04T17:06:35;29.80;38.90
15666;DHT22;20725;51.196;3.510;2022-08-04T17:09:16;29.30;39.80
15666;DHT22;20725;51.196;3.510;2022-08-04T17:11:46;29.30;40.30
15666;DHT22;20725;51.196;3.510;2022-08-04T17:14:15;29.40;40.30
15666;DHT22;20725;51.196;3.510;2022-08-04T17:16:56;29.30;40.10
15666;DHT22;20725;51.196;3.510;2022-08-04T17:19:23;29.00;40.00
15666;DHT22;20725;51.196;3.510;2022-08-04T17:22:00;28.60;40.70
15666;DHT22;20725;51.196;3.510;2022-08-04T17:24:33;28.70;40.70
15666;DHT22;20725;51.196;3.510;2022-08-04T17:27:00;28.40;41.20
15666;DHT22;20725;51.196;3.510;2022-08-04T17:29:32;28.20;41.70
15666;DHT22;20725;51.196;3.510;2022-08-04T17:32:03;27.90;41.50
15666;DHT22;20725;51.196;3.510;2022-08-04T17:34:33;27.60;41.90
15666;DHT22;20725;51.196;3.510;2022-08-04T17:37:03;27.30;42.00
15666;DHT22;20725;51.196;3.510;2022-08-04T17:39:36;27.20;42.20
15666;DHT22;20725;51.196;3.510;2022-08-04T17:42:28;27.20;41.60
15666;DHT22;20725;51.196;3.510;2022-08-04T17:45:05;27.20;41.80
15666;DHT22;20725;51.196;3.510;2022-08-04T17:47:34;27.00;42.00
15666;DHT22;20725;51.196;3.510;2022-08-04T17:50:28;26.80;42.10
15666;DHT22;20725;51.196;3.510;2022-08-04T17:53:03;26.70;41.60
15666;DHT22;20725;51.196;3.510;2022-08-04T17:55:43;26.50;41.70
15666;DHT22;20725;51.196;3.510;2022-08-04T17:58:11;26.60;42.00
15666;DHT22;20725;51.196;3.510;2022-08-04T18:00:57;26.30;41.70
15666;DHT22;20725;51.196;3.510;2022-08-04T18:03:24;26.20;41.90
15666;DHT22;20725;51.196;3.510;2022-08-04T18:05:52;26.10;41.90
15666;DHT22;20725;51.196;3.510;2022-08-04T18:08:24;26.10;41.80
15666;DHT22;20725;51.196;3.510;2022-08-04T18:10:55;25.80;42.20
15666;DHT22;20725;51.196;3.510;2022-08-04T18:13:24;25.80;42.10
15666;DHT22;20725;51.196;3.510;2022-08-04T18:16:02;25.70;42.60
15666;DHT22;20725;51.196;3.510;2022-08-04T18:18:29;25.70;42.60